Soekarno-Hatta International Airport
WIII : now visible

Airfield :











YOU CAN JOIN US ON...

 
LOGIN :

Register | Disclaimer

   EN    FR    IT 

 









Legend :    VFR   Marginal VFR   IFR   Intensive IFR   Very Intensive IFR
Visi :
Ceiling :
>= 8 km
>= 3000ft
5 to 8 km
1000 to 3000 ft
1500m to 5 km
500 to 1000 ft
800 to 1500m
200 to 500 ft
< 800m
< 200 ft
Symbols :   Thunderstorms  Fog  Heavy snow  Heavy precipitations  Wind > 20 kt






- Airport Elevation : 34 ft
- IATA code : CGK


WIII - Soekarno-Hatta International

CURRENT METAR :
  • 300530Z 05014KT 9999 FEW020 33/23 Q1007 NOSIG

EXPIRED METARs :
  • 300500Z 07012KT 040V100 9999 FEW021 33/23 Q1008 NOSIG
  • 300430Z 08011KT 9000 FEW020 33/23 Q1008 NOSIG
  • 300400Z 08011KT 8000 FEW020 33/23 Q1009 NOSIG
  • 300330Z 08011KT 8000 FEW020 33/23 Q1009 NOSIG
  • 300300Z 09012KT 040V130 8000 SCT020 32/22 Q1010 NOSIG

TAF TAF WIII
Valid from the 30 at 06:00 until the 01 at 12:00 UTC


300500Z 3006/0112 05012KT 9000 FEW020
BECMG 3013/3015 21004KT
WIIF FIR / Asia



MET'MAP, your aeronautical weather chart ! - Copyright ORBIFLY December 2007 - Disclaimer

ORBIFLY MET'MAP TEAM :

Programming & Development : Alexandra Zaïnal
Concept & original design : Baudouin d'Aumeries
Assistance for programming : Marc-Olivier Méhu
Technical & hardware support : Manuel Goepfert

Contact : metmap@orbifly.com




SOURCES & CREDITS :

   NOAA       Earth
Advisory